createdAt,value
2022-09-15T00:00:49.918Z,965.99
2022-09-15T00:01:49.987Z,966.03
2022-09-15T00:02:50.038Z,965.97
2022-09-15T00:03:49.901Z,966.07
2022-09-15T00:04:49.889Z,965.96
2022-09-15T00:05:49.901Z,965.97
2022-09-15T00:06:49.875Z,965.95
2022-09-15T00:07:49.871Z,965.94
2022-09-15T00:08:49.861Z,965.92
2022-09-15T00:09:49.855Z,965.96
2022-09-15T00:10:49.846Z,965.89
2022-09-15T00:11:49.840Z,965.89
2022-09-15T00:12:49.833Z,965.88
2022-09-15T00:13:49.861Z,965.86
2022-09-15T00:14:49.823Z,965.88
2022-09-15T00:15:49.813Z,965.88
2022-09-15T00:16:49.872Z,965.88
2022-09-15T00:17:49.799Z,965.88
2022-09-15T00:18:49.792Z,965.88
2022-09-15T00:19:49.784Z,965.86
2022-09-15T00:20:49.774Z,965.83
2022-09-15T00:21:49.788Z,965.88
2022-09-15T00:22:49.762Z,965.88
2022-09-15T00:23:49.758Z,965.84
2022-09-15T00:24:49.747Z,965.83
2022-09-15T00:25:49.744Z,965.77
2022-09-15T00:26:49.731Z,965.78
2022-09-15T00:27:49.729Z,965.75
2022-09-15T00:28:49.814Z,965.74
2022-09-15T00:29:49.716Z,965.70
2022-09-15T00:30:49.742Z,965.69
2022-09-15T00:31:49.700Z,965.65
2022-09-15T00:32:49.781Z,965.65
2022-09-15T00:33:49.686Z,965.67
2022-09-15T00:34:49.677Z,965.64
2022-09-15T00:35:49.672Z,965.64
2022-09-15T00:36:49.661Z,965.55
2022-09-15T00:37:49.878Z,965.55
2022-09-15T00:38:49.660Z,965.54
2022-09-15T00:39:49.703Z,965.53
2022-09-15T00:40:49.632Z,965.53
2022-09-15T00:41:49.629Z,965.50
2022-09-15T00:42:49.652Z,965.46
2022-09-15T00:43:49.615Z,965.45
2022-09-15T00:44:49.604Z,965.42
2022-09-15T00:45:49.621Z,965.38
2022-09-15T00:47:09.358Z,965.36
2022-09-15T00:47:49.585Z,965.37
2022-09-15T00:48:49.577Z,965.36
2022-09-15T00:49:49.586Z,965.37
2022-09-15T00:50:49.562Z,965.38
2022-09-15T00:51:49.566Z,965.37
2022-09-15T00:52:49.549Z,965.38
2022-09-15T00:53:49.753Z,965.35
2022-09-15T00:54:49.534Z,965.35
2022-09-15T00:55:49.529Z,965.34
2022-09-15T00:56:49.524Z,965.39
2022-09-15T00:57:49.516Z,965.37
2022-09-15T00:58:49.507Z,965.30
2022-09-15T00:59:49.502Z,965.42
2022-09-15T01:00:49.547Z,965.35
2022-09-15T01:01:49.556Z,965.36
2022-09-15T01:02:49.478Z,965.37
2022-09-15T01:03:49.474Z,965.35
2022-09-15T01:04:49.463Z,965.34
2022-09-15T01:05:49.460Z,965.31
2022-09-15T01:06:49.449Z,965.37
2022-09-15T01:07:49.445Z,965.35
2022-09-15T01:08:49.438Z,965.43
2022-09-15T01:09:49.533Z,965.34
2022-09-15T01:10:49.420Z,965.37
2022-09-15T01:11:49.418Z,965.38
2022-09-15T01:12:49.405Z,965.37
2022-09-15T01:13:49.402Z,965.41
2022-09-15T01:14:49.392Z,965.35
2022-09-15T01:15:49.386Z,965.31
2022-09-15T01:16:49.465Z,965.36
2022-09-15T01:17:49.374Z,965.33
2022-09-15T01:18:49.363Z,965.36
2022-09-15T01:19:49.358Z,965.38
2022-09-15T01:20:49.349Z,965.37
2022-09-15T01:21:49.345Z,965.43
2022-09-15T01:22:49.335Z,965.42
2022-09-15T01:23:49.329Z,965.36
2022-09-15T01:24:49.319Z,965.36
2022-09-15T01:25:49.331Z,965.37
2022-09-15T01:26:49.307Z,965.39
2022-09-15T01:27:49.299Z,965.40
2022-09-15T01:28:49.291Z,965.44
2022-09-15T01:29:49.286Z,965.41
2022-09-15T01:30:49.276Z,965.48
2022-09-15T01:31:49.304Z,965.49
2022-09-15T01:32:49.266Z,965.43
2022-09-15T01:33:49.258Z,965.49
2022-09-15T01:34:49.246Z,965.45
2022-09-15T01:35:49.241Z,965.43
2022-09-15T01:36:49.232Z,965.38
2022-09-15T01:37:49.227Z,965.38
2022-09-15T01:38:49.221Z,965.34
2022-09-15T01:39:49.245Z,965.33
2022-09-15T01:40:49.204Z,965.31
2022-09-15T01:41:49.215Z,965.32
2022-09-15T01:42:49.187Z,965.23
2022-09-15T01:43:49.184Z,965.26
2022-09-15T01:44:49.174Z,965.30
2022-09-15T01:45:49.235Z,965.21
2022-09-15T01:46:49.158Z,965.27
2022-09-15T01:47:49.154Z,965.19
2022-09-15T01:48:49.144Z,965.27
2022-09-15T01:49:49.140Z,965.30
2022-09-15T01:50:49.129Z,965.25
2022-09-15T01:51:49.125Z,965.17
2022-09-15T01:52:49.115Z,965.28
2022-09-15T01:54:49.104Z,965.24
2022-09-15T01:55:49.096Z,965.17
2022-09-15T01:56:49.088Z,965.19
2022-09-15T01:57:49.099Z,965.21
2022-09-15T01:58:49.073Z,965.18
2022-09-15T01:59:49.063Z,965.10
2022-09-15T02:00:49.107Z,965.16
2022-09-15T02:01:49.101Z,965.09
2022-09-15T02:02:49.042Z,965.11
2022-09-15T02:03:49.084Z,965.11
2022-09-15T02:04:49.028Z,965.12
2022-09-15T02:05:49.019Z,965.08
2022-09-15T02:06:49.013Z,965.02
2022-09-15T02:07:49.004Z,965.07
2022-09-15T02:08:49.009Z,965.03
2022-09-15T02:09:48.989Z,965.02
2022-09-15T02:10:48.982Z,964.96
2022-09-15T02:11:48.974Z,964.97
2022-09-15T02:12:48.971Z,964.95
2022-09-15T02:13:48.978Z,964.94
2022-09-15T02:14:48.953Z,964.92
2022-09-15T02:15:48.943Z,964.91
2022-09-15T02:16:48.993Z,964.91
2022-09-15T02:17:48.929Z,964.88
2022-09-15T02:18:48.924Z,964.88
2022-09-15T02:19:48.919Z,964.85
2022-09-15T02:20:48.910Z,964.93
2022-09-15T02:21:48.899Z,964.91
2022-09-15T02:22:48.893Z,964.94
2022-09-15T02:23:48.886Z,964.94
2022-09-15T02:24:48.881Z,964.94
2022-09-15T02:25:48.875Z,964.95
2022-09-15T02:26:48.865Z,964.94
2022-09-15T02:27:48.855Z,964.93
2022-09-15T02:28:48.851Z,964.95
2022-09-15T02:29:48.860Z,965.00
2022-09-15T02:30:48.836Z,964.99
2022-09-15T02:31:48.980Z,964.98
2022-09-15T02:32:48.822Z,965.01
2022-09-15T02:33:48.812Z,965.02
2022-09-15T02:34:48.805Z,965.05
2022-09-15T02:35:48.798Z,965.03
2022-09-15T02:36:48.792Z,964.98
2022-09-15T02:37:48.783Z,964.99
2022-09-15T02:38:48.777Z,965.00
2022-09-15T02:39:48.850Z,964.99
2022-09-15T02:40:48.761Z,965.00
2022-09-15T02:41:48.764Z,965.02
2022-09-15T02:42:48.748Z,965.02
2022-09-15T02:43:48.739Z,965.05
2022-09-15T02:44:48.733Z,964.99
2022-09-15T02:45:48.956Z,965.03
2022-09-15T02:47:48.712Z,965.03
2022-09-15T02:48:48.703Z,965.03
2022-09-15T02:49:48.696Z,965.05
2022-09-15T02:50:48.686Z,965.05
2022-09-15T02:51:48.681Z,965.01
2022-09-15T02:52:48.672Z,965.02
2022-09-15T02:53:48.667Z,965.05
2022-09-15T02:54:48.656Z,965.04
2022-09-15T02:55:48.652Z,965.05
2022-09-15T02:56:48.642Z,965.05
2022-09-15T02:57:48.638Z,965.04
2022-09-15T02:58:48.627Z,965.07
2022-09-15T02:59:48.622Z,965.03
2022-09-15T03:00:48.664Z,965.04
2022-09-15T03:01:48.674Z,965.01
2022-09-15T03:02:48.598Z,965.01
2022-09-15T03:03:48.592Z,964.95
2022-09-15T03:04:48.583Z,964.95
2022-09-15T03:05:48.578Z,964.99
2022-09-15T03:06:48.568Z,965.01
2022-09-15T03:07:48.563Z,964.99
2022-09-15T03:08:48.555Z,964.98
2022-09-15T03:09:48.548Z,965.00
2022-09-15T03:10:48.537Z,965.03
2022-09-15T03:11:48.532Z,965.05
2022-09-15T03:12:48.523Z,965.05
2022-09-15T03:15:48.503Z,965.11
2022-09-15T03:16:48.531Z,965.10
2022-09-15T03:17:48.507Z,965.08
2022-09-15T03:18:48.480Z,965.09
2022-09-15T03:19:48.473Z,965.10
2022-09-15T03:20:48.462Z,965.02
2022-09-15T03:22:48.451Z,965.01
2022-09-15T03:23:48.441Z,964.97
2022-09-15T03:24:48.436Z,964.99
2022-09-15T03:25:48.629Z,964.98
2022-09-15T03:26:48.421Z,964.97
2022-09-15T03:27:48.411Z,964.92
2022-09-15T03:28:48.407Z,964.96
2022-09-15T03:29:48.401Z,964.97
2022-09-15T03:30:48.410Z,964.97
2022-09-15T03:31:48.420Z,964.98
2022-09-15T03:32:48.377Z,964.95
2022-09-15T03:33:48.388Z,964.92
2022-09-15T03:34:48.360Z,964.92
2022-09-15T03:35:48.352Z,964.93
2022-09-15T03:36:48.345Z,964.93
2022-09-15T03:37:48.339Z,964.93
2022-09-15T03:38:48.331Z,964.92
2022-09-15T03:39:48.352Z,964.93
2022-09-15T03:40:48.317Z,964.92
2022-09-15T03:41:48.308Z,964.93
2022-09-15T03:42:48.301Z,964.89
2022-09-15T03:43:48.294Z,964.93
2022-09-15T03:44:48.285Z,964.97
2022-09-15T03:45:48.379Z,964.95
2022-09-15T03:46:48.271Z,964.92
2022-09-15T03:47:48.262Z,964.90
2022-09-15T03:48:48.257Z,964.91
2022-09-15T03:49:48.265Z,964.87
2022-09-15T03:50:48.242Z,964.89
2022-09-15T03:51:48.232Z,964.85
2022-09-15T03:52:48.227Z,964.87
2022-09-15T03:53:48.217Z,964.81
2022-09-15T03:54:48.210Z,964.79
2022-09-15T03:55:48.200Z,964.77
2022-09-15T03:56:48.196Z,964.79
2022-09-15T03:57:48.187Z,964.75
2022-09-15T03:58:48.180Z,964.76
2022-09-15T03:59:48.172Z,964.77
2022-09-15T04:00:48.206Z,964.81
2022-09-15T04:01:48.308Z,964.76
2022-09-15T04:02:48.149Z,964.80
2022-09-15T04:03:51.095Z,964.85
2022-09-15T04:04:48.135Z,964.85
2022-09-15T04:05:48.146Z,964.86
2022-09-15T04:06:48.322Z,964.87
2022-09-15T04:07:48.110Z,964.91
2022-09-15T04:08:48.102Z,964.95
2022-09-15T04:09:48.100Z,964.95
2022-09-15T04:10:48.087Z,964.98
2022-09-15T04:11:48.086Z,964.99
2022-09-15T04:12:48.072Z,964.98
2022-09-15T04:13:48.069Z,964.97
2022-09-15T04:14:48.057Z,965.01
2022-09-15T04:15:48.051Z,964.99
2022-09-15T04:16:48.106Z,964.95
2022-09-15T04:18:48.032Z,964.91
2022-09-15T04:19:48.019Z,964.92
2022-09-15T04:20:48.013Z,964.88
2022-09-15T04:21:48.022Z,964.87
2022-09-15T04:22:47.998Z,964.86
2022-09-15T04:23:48.193Z,964.89
2022-09-15T04:24:47.996Z,964.87
2022-09-15T04:25:47.972Z,964.85
2022-09-15T04:26:47.968Z,964.79
2022-09-15T04:27:47.959Z,964.83
2022-09-15T04:28:47.953Z,964.80
2022-09-15T04:29:47.944Z,964.77
2022-09-15T04:30:47.938Z,964.82
2022-09-15T04:31:47.971Z,964.80
2022-09-15T04:32:47.923Z,964.83
2022-09-15T04:33:47.913Z,964.81
2022-09-15T04:34:47.907Z,964.75
2022-09-15T04:35:47.898Z,964.75
2022-09-15T04:36:47.892Z,964.75
2022-09-15T04:37:47.966Z,964.74
2022-09-15T04:38:47.878Z,964.73
2022-09-15T04:39:47.962Z,964.73
2022-09-15T04:40:47.861Z,964.74
2022-09-15T04:41:47.852Z,964.69
2022-09-15T04:42:47.846Z,964.74
2022-09-15T04:43:47.838Z,964.74
2022-09-15T04:44:47.831Z,964.71
2022-09-15T04:45:47.823Z,964.74
2022-09-15T04:46:47.896Z,964.74
2022-09-15T04:47:47.807Z,964.72
2022-09-15T04:48:47.802Z,964.71
2022-09-15T04:49:47.795Z,964.72
2022-09-15T04:50:47.786Z,964.69
2022-09-15T04:51:47.776Z,964.68
2022-09-15T04:52:47.771Z,964.71
2022-09-15T04:53:47.778Z,964.66
2022-09-15T04:54:47.755Z,964.66
2022-09-15T04:55:47.746Z,964.66
2022-09-15T04:56:47.740Z,964.66
2022-09-15T04:57:47.735Z,964.66
2022-09-15T04:58:47.724Z,964.67
2022-09-15T04:59:47.715Z,964.72
2022-09-15T05:00:47.829Z,964.67
2022-09-15T05:01:47.736Z,964.66
2022-09-15T05:02:47.694Z,964.67
2022-09-15T05:03:47.685Z,964.73
2022-09-15T05:04:47.679Z,964.80
2022-09-15T05:05:47.671Z,964.75
2022-09-15T05:06:47.664Z,964.72
2022-09-15T05:07:47.656Z,964.73
2022-09-15T05:08:47.652Z,964.69
2022-09-15T05:09:47.662Z,964.65
2022-09-15T05:10:47.632Z,964.67
2022-09-15T05:11:47.623Z,964.65
2022-09-15T05:12:47.620Z,964.66
2022-09-15T05:13:47.621Z,964.71
2022-09-15T05:14:47.602Z,964.74
2022-09-15T05:15:47.663Z,964.74
2022-09-15T05:16:47.588Z,964.76
2022-09-15T05:17:47.579Z,964.79
2022-09-15T05:18:47.572Z,964.79
2022-09-15T05:19:47.563Z,964.79
2022-09-15T05:20:47.558Z,964.81
2022-09-15T05:21:47.548Z,964.81
2022-09-15T05:22:47.556Z,964.83
2022-09-15T05:23:47.533Z,964.84
2022-09-15T05:24:47.527Z,964.87
2022-09-15T05:25:47.535Z,964.82
2022-09-15T05:26:47.510Z,964.87
2022-09-15T05:27:47.502Z,964.82
2022-09-15T05:28:47.497Z,964.86
2022-09-15T05:29:47.488Z,964.83
2022-09-15T05:30:47.482Z,964.84
2022-09-15T05:31:47.528Z,964.86
2022-09-15T05:32:47.468Z,964.85
2022-09-15T05:33:47.458Z,964.86
2022-09-15T05:34:47.452Z,964.79
2022-09-15T05:35:47.445Z,964.82
2022-09-15T05:36:47.440Z,964.84
2022-09-15T05:37:47.428Z,964.86
2022-09-15T05:38:47.424Z,964.84
2022-09-15T05:39:47.496Z,964.83
2022-09-15T05:40:47.409Z,964.83
2022-09-15T05:41:47.417Z,964.81
2022-09-15T05:42:47.392Z,964.79
2022-09-15T05:43:47.382Z,964.79
2022-09-15T05:45:47.368Z,964.80
2022-09-15T05:46:47.441Z,964.84
2022-09-15T05:47:47.553Z,964.82
2022-09-15T05:48:47.352Z,964.81
2022-09-15T05:49:47.338Z,964.86
2022-09-15T05:50:47.328Z,964.84
2022-09-15T05:51:47.323Z,964.87
2022-09-15T05:52:47.313Z,964.90
2022-09-15T05:53:47.308Z,964.90
2022-09-15T05:55:47.290Z,964.90
2022-09-15T05:56:47.284Z,964.92
2022-09-15T05:57:47.292Z,964.89
2022-09-15T05:58:47.268Z,964.91
2022-09-15T05:59:47.259Z,964.94
2022-09-15T06:00:47.252Z,964.95
2022-09-15T06:01:47.534Z,964.92
2022-09-15T06:02:47.310Z,964.94
2022-09-15T06:03:47.228Z,964.92
2022-09-15T06:04:47.324Z,964.89
2022-09-15T06:05:47.216Z,964.90
2022-09-15T06:06:47.208Z,964.86
2022-09-15T06:07:47.197Z,964.90
2022-09-15T06:08:48.439Z,964.86
2022-09-15T06:09:47.184Z,964.89
2022-09-15T06:10:47.178Z,964.86
2022-09-15T06:11:47.168Z,964.86
2022-09-15T06:12:47.163Z,964.88
2022-09-15T06:13:47.173Z,964.86
2022-09-15T06:15:47.192Z,964.89
2022-09-15T06:16:47.132Z,964.88
2022-09-15T06:17:47.326Z,964.93
2022-09-15T06:18:47.115Z,964.94
2022-09-15T06:19:47.109Z,964.96
2022-09-15T06:20:47.098Z,964.96
2022-09-15T06:21:47.094Z,964.97
2022-09-15T06:22:47.084Z,965.01
2022-09-15T06:23:50.662Z,965.04
2022-09-15T06:24:47.069Z,965.09
2022-09-15T06:25:47.063Z,965.07
2022-09-15T06:26:47.104Z,965.09
2022-09-15T06:27:47.049Z,965.15
2022-09-15T06:28:47.040Z,965.16
2022-09-15T06:29:47.056Z,965.17
2022-09-15T06:30:47.024Z,965.14
2022-09-15T06:31:47.112Z,965.19
2022-09-15T06:32:48.404Z,965.19
2022-09-15T06:33:47.017Z,965.20
2022-09-15T06:34:46.995Z,965.19
2022-09-15T06:35:47.006Z,965.22
2022-09-15T06:36:46.982Z,965.26
2022-09-15T06:37:46.975Z,965.24
2022-09-15T06:38:47.167Z,965.21
2022-09-15T06:40:46.957Z,965.26
2022-09-15T06:42:01.805Z,965.28
2022-09-15T06:42:46.940Z,965.26
2022-09-15T06:43:46.944Z,965.31
2022-09-15T06:44:46.925Z,965.35
2022-09-15T06:45:47.036Z,965.37
2022-09-15T06:46:46.914Z,965.39
2022-09-15T06:47:58.140Z,965.35
2022-09-15T06:48:48.494Z,965.34
2022-09-15T06:50:46.885Z,965.35
2022-09-15T06:51:46.881Z,965.35
2022-09-15T06:52:46.869Z,965.39
2022-09-15T06:54:46.856Z,965.43
2022-09-15T06:55:47.050Z,965.47
2022-09-15T06:56:46.945Z,965.46
2022-09-15T06:57:46.836Z,965.52
2022-09-15T06:58:46.829Z,965.57
2022-09-15T06:59:46.820Z,965.55
2022-09-15T07:00:46.817Z,965.53
2022-09-15T07:01:46.903Z,965.55
2022-09-15T07:02:46.945Z,965.56
2022-09-15T07:03:46.829Z,965.56
2022-09-15T07:04:46.812Z,965.59
2022-09-15T07:05:46.781Z,965.58
2022-09-15T07:06:46.778Z,965.58
2022-09-15T07:07:46.767Z,965.59
2022-09-15T07:08:46.765Z,965.61
2022-09-15T07:09:49.052Z,965.59
2022-09-15T07:10:46.749Z,965.59
2022-09-15T07:11:46.790Z,965.60
2022-09-15T07:12:46.736Z,965.62
2022-09-15T07:13:46.727Z,965.68
2022-09-15T07:14:46.723Z,965.66
2022-09-15T07:15:46.713Z,965.71
2022-09-15T07:16:46.781Z,965.72
2022-09-15T07:17:46.717Z,965.78
2022-09-15T07:18:46.695Z,965.79
2022-09-15T07:19:46.688Z,965.80
2022-09-15T07:20:46.683Z,965.89
2022-09-15T07:21:46.674Z,965.93
2022-09-15T07:22:46.669Z,965.97
2022-09-15T07:23:46.661Z,966.02
2022-09-15T07:24:46.655Z,966.07
2022-09-15T07:25:46.648Z,966.06
2022-09-15T07:26:46.642Z,966.05
2022-09-15T07:27:46.633Z,966.04
2022-09-15T07:28:46.634Z,966.07
2022-09-15T07:29:46.620Z,966.04
2022-09-15T07:30:46.616Z,966.03
2022-09-15T07:31:46.703Z,966.03
2022-09-15T07:32:46.602Z,966.01
2022-09-15T07:33:46.612Z,965.98
2022-09-15T07:34:46.587Z,965.97
2022-09-15T07:35:46.580Z,965.94
2022-09-15T07:36:46.576Z,965.95
2022-09-15T07:37:46.566Z,965.92
2022-09-15T07:38:46.563Z,965.88
2022-09-15T07:39:46.577Z,965.89
2022-09-15T07:40:46.548Z,965.90
2022-09-15T07:41:46.551Z,965.89
2022-09-15T07:42:46.537Z,965.94
2022-09-15T07:43:46.532Z,965.94
2022-09-15T07:44:46.522Z,965.97
2022-09-15T07:45:46.526Z,965.92
2022-09-15T07:46:46.507Z,965.95
2022-09-15T07:47:46.499Z,965.99
2022-09-15T07:48:46.495Z,965.98
2022-09-15T07:49:46.503Z,966.03
2022-09-15T07:50:46.480Z,966.05
2022-09-15T07:51:46.476Z,966.00
2022-09-15T07:52:46.468Z,966.05
2022-09-15T07:53:46.463Z,966.00
2022-09-15T07:54:46.453Z,965.90
2022-09-15T07:55:46.447Z,965.95
2022-09-15T07:56:46.440Z,965.95
2022-09-15T07:57:46.431Z,965.97
2022-09-15T07:58:46.427Z,965.98
2022-09-15T07:59:46.416Z,965.99
2022-09-15T08:00:46.499Z,965.98
2022-09-15T08:01:46.511Z,965.95
2022-09-15T08:02:46.399Z,965.96
2022-09-15T08:03:46.460Z,965.98
2022-09-15T08:04:46.385Z,965.98
2022-09-15T08:05:46.423Z,965.95
2022-09-15T08:06:46.372Z,965.92
2022-09-15T08:07:46.364Z,965.91
2022-09-15T08:08:46.359Z,965.95
2022-09-15T08:09:46.351Z,966.02
2022-09-15T08:10:46.346Z,966.04
2022-09-15T08:11:46.344Z,966.06
2022-09-15T08:12:46.332Z,966.12
2022-09-15T08:13:46.326Z,966.18
2022-09-15T08:14:46.317Z,966.20
2022-09-15T08:15:46.406Z,966.17
2022-09-15T08:16:46.305Z,966.19
2022-09-15T08:17:46.296Z,966.22
2022-09-15T08:18:46.303Z,966.25
2022-09-15T08:19:46.281Z,966.23
2022-09-15T08:20:46.280Z,966.20
2022-09-15T08:21:46.355Z,966.18
2022-09-15T08:22:46.264Z,966.17
2022-09-15T08:23:46.256Z,966.19
2022-09-15T08:24:46.249Z,966.19
2022-09-15T08:25:46.242Z,966.14
2022-09-15T08:26:46.237Z,966.16
2022-09-15T08:28:46.222Z,966.19
2022-09-15T08:29:46.218Z,966.20
2022-09-15T08:30:46.221Z,966.19
2022-09-15T08:31:46.298Z,966.26
2022-09-15T08:32:46.198Z,966.29
2022-09-15T08:33:46.190Z,966.37
2022-09-15T08:34:46.182Z,966.35
2022-09-15T08:35:46.174Z,966.40
2022-09-15T08:36:46.168Z,966.41
2022-09-15T08:37:46.179Z,966.39
2022-09-15T08:38:46.157Z,966.41
2022-09-15T08:39:46.228Z,966.40
2022-09-15T08:40:46.142Z,966.42
2022-09-15T08:41:46.134Z,966.41
2022-09-15T08:42:46.127Z,966.38
2022-09-15T08:43:46.121Z,966.39
2022-09-15T08:44:46.116Z,966.41
2022-09-15T08:45:46.110Z,966.40
2022-09-15T08:46:46.192Z,966.43
2022-09-15T08:47:46.095Z,966.38
2022-09-15T08:48:46.090Z,966.42
2022-09-15T08:49:52.051Z,966.43
2022-09-15T08:50:46.073Z,966.48
2022-09-15T08:51:46.066Z,966.49
2022-09-15T08:52:46.062Z,966.44
2022-09-15T08:53:46.072Z,966.44
2022-09-15T08:54:46.059Z,966.42
2022-09-15T08:55:46.039Z,966.49
2022-09-15T08:56:46.032Z,966.50
2022-09-15T08:57:46.025Z,966.51
2022-09-15T08:58:46.026Z,966.51
2022-09-15T08:59:46.019Z,966.49
2022-09-15T09:00:46.006Z,966.51
2022-09-15T09:01:46.142Z,966.54
2022-09-15T09:02:46.067Z,966.59
2022-09-15T09:03:45.984Z,966.58
2022-09-15T09:04:45.995Z,966.48
2022-09-15T09:05:45.971Z,966.54
2022-09-15T09:06:45.964Z,966.56
2022-09-15T09:07:45.956Z,966.55
2022-09-15T09:08:45.963Z,966.52
2022-09-15T09:09:46.010Z,966.50
2022-09-15T09:10:45.938Z,966.56
2022-09-15T09:11:45.929Z,966.51
2022-09-15T09:12:45.924Z,966.54
2022-09-15T09:13:45.918Z,966.58
2022-09-15T09:14:45.911Z,966.56
2022-09-15T09:15:45.955Z,966.52
2022-09-15T09:16:45.900Z,966.56
2022-09-15T09:17:45.887Z,966.57
2022-09-15T09:18:45.882Z,966.51
2022-09-15T09:19:45.876Z,966.54
2022-09-15T09:20:45.870Z,966.55
2022-09-15T09:21:45.862Z,966.58
2022-09-15T09:22:45.856Z,966.51
2022-09-15T09:23:45.852Z,966.56
2022-09-15T09:24:45.845Z,966.56
2022-09-15T09:25:45.853Z,966.58
2022-09-15T09:26:45.833Z,966.55
2022-09-15T09:27:45.824Z,966.55
2022-09-15T09:28:45.832Z,966.53
2022-09-15T09:29:45.809Z,966.56
2022-09-15T09:30:45.880Z,966.62
2022-09-15T09:31:45.798Z,966.60
2022-09-15T09:32:45.793Z,966.60
2022-09-15T09:33:47.945Z,966.55
2022-09-15T09:34:45.784Z,966.55
2022-09-15T09:35:45.775Z,966.55
2022-09-15T09:36:45.867Z,966.51
2022-09-15T09:37:45.800Z,966.52
2022-09-15T09:38:45.755Z,966.48
2022-09-15T09:39:45.834Z,966.48
2022-09-15T09:40:45.742Z,966.52
2022-09-15T09:41:45.883Z,966.48
2022-09-15T09:42:45.729Z,966.51
2022-09-15T09:43:45.770Z,966.49
2022-09-15T09:44:45.717Z,966.48
2022-09-15T09:45:45.754Z,966.42
2022-09-15T09:46:45.704Z,966.38
2022-09-15T09:47:45.696Z,966.48
2022-09-15T09:48:45.694Z,966.45
2022-09-15T09:49:45.685Z,966.47
2022-09-15T09:50:45.679Z,966.43
2022-09-15T09:51:45.672Z,966.40
2022-09-15T09:52:45.667Z,966.40
2022-09-15T09:53:45.660Z,966.37
2022-09-15T09:54:45.655Z,966.32
2022-09-15T09:55:45.648Z,966.32
2022-09-15T09:56:45.668Z,966.32
2022-09-15T09:57:45.772Z,966.29
2022-09-15T09:58:45.631Z,966.26
2022-09-15T09:59:45.622Z,966.25
2022-09-15T10:00:45.619Z,966.22
2022-09-15T10:01:45.676Z,966.24
2022-09-15T10:02:45.606Z,966.18
2022-09-15T10:03:45.601Z,966.22
2022-09-15T10:04:45.642Z,966.22
2022-09-15T10:05:45.588Z,966.19
2022-09-15T10:06:45.581Z,966.20
2022-09-15T10:07:45.572Z,966.18
2022-09-15T10:08:45.570Z,966.13
2022-09-15T10:09:45.562Z,966.13
2022-09-15T10:10:45.556Z,966.12
2022-09-15T10:11:45.550Z,966.14
2022-09-15T10:12:45.544Z,966.12
2022-09-15T10:13:45.556Z,966.12
2022-09-15T10:14:45.531Z,966.07
2022-09-15T10:15:45.524Z,966.06
2022-09-15T10:16:45.540Z,966.10
2022-09-15T10:17:45.512Z,966.08
2022-09-15T10:18:45.508Z,966.11
2022-09-15T10:19:45.498Z,966.11
2022-09-15T10:20:45.496Z,966.10
2022-09-15T10:21:45.488Z,966.11
2022-09-15T10:22:45.483Z,966.19
2022-09-15T10:23:45.477Z,966.18
2022-09-15T10:24:45.478Z,966.18
2022-09-15T10:26:00.794Z,966.13
2022-09-15T10:26:45.560Z,966.15
2022-09-15T10:27:45.459Z,966.12
2022-09-15T10:28:45.450Z,966.10
2022-09-15T10:29:45.463Z,966.16
2022-09-15T10:30:45.437Z,966.16
2022-09-15T10:31:45.474Z,966.12
2022-09-15T10:32:45.430Z,966.14
2022-09-15T10:33:45.421Z,966.17
2022-09-15T10:34:45.418Z,966.16
2022-09-15T10:35:45.410Z,966.16
2022-09-15T10:36:45.408Z,966.13
2022-09-15T10:37:45.401Z,966.15
2022-09-15T10:38:45.482Z,966.12
2022-09-15T10:39:45.399Z,966.17
2022-09-15T10:40:45.388Z,966.10
2022-09-15T10:41:45.387Z,966.10
2022-09-15T10:42:45.378Z,966.12
2022-09-15T10:43:45.372Z,966.09
2022-09-15T10:44:45.369Z,966.11
2022-09-15T10:45:45.543Z,966.06
2022-09-15T10:46:45.359Z,966.11
2022-09-15T10:47:45.352Z,966.09
2022-09-15T10:48:45.349Z,966.12
2022-09-15T10:49:45.345Z,966.14
2022-09-15T10:50:45.340Z,966.10
2022-09-15T10:51:45.332Z,966.17
2022-09-15T10:52:45.331Z,966.16
2022-09-15T10:53:45.323Z,966.17
2022-09-15T10:54:45.398Z,966.11
2022-09-15T10:55:53.519Z,966.10
2022-09-15T10:56:45.311Z,966.12
2022-09-15T10:57:45.305Z,966.14
2022-09-15T10:58:45.959Z,966.18
2022-09-15T10:59:45.295Z,966.17
2022-09-15T11:00:45.351Z,966.12
2022-09-15T11:01:45.353Z,966.14
2022-09-15T11:02:45.281Z,966.11
2022-09-15T11:03:45.274Z,966.13
2022-09-15T11:04:45.270Z,966.16
2022-09-15T11:05:45.264Z,966.11
2022-09-15T11:06:45.259Z,966.14
2022-09-15T11:07:45.252Z,966.09
2022-09-15T11:08:45.312Z,966.10
2022-09-15T11:09:45.243Z,966.09
2022-09-15T11:10:45.238Z,966.05
2022-09-15T11:11:45.231Z,966.05
2022-09-15T11:12:45.226Z,965.98
2022-09-15T11:13:45.221Z,966.07
2022-09-15T11:14:45.217Z,966.03
2022-09-15T11:15:45.211Z,966.02
2022-09-15T11:16:45.258Z,966.07
2022-09-15T11:17:45.214Z,966.02
2022-09-15T11:18:45.194Z,966.02
2022-09-15T11:19:45.203Z,966.02
2022-09-15T11:20:45.184Z,966.01
2022-09-15T11:21:45.178Z,966.02
2022-09-15T11:22:49.484Z,965.99
2022-09-15T11:23:45.246Z,966.03
2022-09-15T11:24:45.162Z,965.97
2022-09-15T11:25:45.160Z,966.05
2022-09-15T11:26:45.152Z,966.05
2022-09-15T11:27:45.144Z,966.02
2022-09-15T11:28:45.142Z,966.05
2022-09-15T11:29:45.141Z,966.07
2022-09-15T11:30:47.736Z,966.06
2022-09-15T11:31:45.264Z,966.10
2022-09-15T11:32:45.220Z,966.06
2022-09-15T11:33:45.221Z,966.06
2022-09-15T11:34:45.109Z,966.10
2022-09-15T11:35:45.105Z,966.12
2022-09-15T11:36:45.101Z,966.13
2022-09-15T11:37:45.095Z,966.19
2022-09-15T11:38:45.093Z,966.14
2022-09-15T11:39:45.154Z,966.14
2022-09-15T11:40:45.086Z,966.12
2022-09-15T11:41:45.074Z,966.13
2022-09-15T11:42:45.080Z,966.12
2022-09-15T11:43:45.074Z,966.10
2022-09-15T11:44:45.062Z,966.15
2022-09-15T11:45:45.053Z,966.13
2022-09-15T11:46:45.139Z,966.16
2022-09-15T11:47:45.039Z,966.11
2022-09-15T11:48:45.088Z,966.13
2022-09-15T11:49:45.047Z,966.11
2022-09-15T11:50:45.025Z,966.15
2022-09-15T11:51:45.017Z,966.11
2022-09-15T11:52:45.017Z,966.18
2022-09-15T11:53:45.007Z,966.11
2022-09-15T11:54:45.003Z,966.10
2022-09-15T11:55:44.996Z,966.06
2022-09-15T11:56:44.992Z,966.13
2022-09-15T11:57:44.987Z,966.15
2022-09-15T11:58:44.985Z,966.08
2022-09-15T11:59:44.974Z,966.15
2022-09-15T12:00:44.970Z,966.19
2022-09-15T12:01:45.046Z,966.21
2022-09-15T12:02:44.985Z,966.19
2022-09-15T12:03:45.034Z,966.22
2022-09-15T12:04:44.948Z,966.11
2022-09-15T12:05:44.962Z,966.18
2022-09-15T12:06:46.068Z,966.21
2022-09-15T12:07:44.929Z,966.20
2022-09-15T12:08:45.056Z,966.22
2022-09-15T12:09:44.918Z,966.23
2022-09-15T12:10:44.914Z,966.23
2022-09-15T12:11:44.905Z,966.16
2022-09-15T12:12:44.902Z,966.19
2022-09-15T12:13:44.896Z,966.23
2022-09-15T12:14:44.891Z,966.27
2022-09-15T12:15:45.246Z,966.19
2022-09-15T12:16:44.882Z,966.13
2022-09-15T12:17:44.872Z,966.16
2022-09-15T12:18:46.750Z,966.18
2022-09-15T12:19:44.862Z,966.16
2022-09-15T12:20:44.856Z,966.16
2022-09-15T12:21:44.889Z,966.15
2022-09-15T12:22:44.844Z,966.20
2022-09-15T12:23:44.889Z,966.15
2022-09-15T12:24:44.833Z,966.16
2022-09-15T12:25:44.826Z,966.18
2022-09-15T12:26:44.822Z,966.18
2022-09-15T12:27:44.815Z,966.13
2022-09-15T12:28:44.884Z,966.11
2022-09-15T12:29:44.803Z,966.07
2022-09-15T12:30:44.847Z,966.08
2022-09-15T12:31:44.791Z,966.06
2022-09-15T12:32:44.790Z,966.11
2022-09-15T12:33:44.782Z,966.09
2022-09-15T12:34:44.778Z,966.09
2022-09-15T12:35:44.820Z,966.11
2022-09-15T12:36:44.766Z,966.16
2022-09-15T12:37:44.780Z,966.15
2022-09-15T12:38:44.853Z,966.10
2022-09-15T12:39:44.851Z,966.13
2022-09-15T12:40:44.744Z,966.09
2022-09-15T12:41:44.736Z,966.11